createdAt,value
2017-11-30T00:02:10.564Z,22.67
2017-11-30T00:04:38.727Z,23.87
2017-11-30T00:07:06.860Z,22.70
2017-11-30T00:09:35.069Z,23.97
2017-11-30T00:12:03.316Z,23.10
2017-11-30T00:14:31.517Z,20.17
2017-11-30T00:16:59.640Z,21.53
2017-11-30T00:19:27.816Z,22.50
2017-11-30T00:21:55.983Z,22.57
2017-11-30T00:24:24.943Z,22.80
2017-11-30T00:26:53.159Z,21.73
2017-11-30T00:29:21.271Z,25.13
2017-11-30T00:31:49.392Z,22.80
2017-11-30T00:34:17.512Z,19.77
2017-11-30T00:36:45.677Z,20.60
2017-11-30T00:39:13.806Z,22.33
2017-11-30T00:41:54.965Z,21.87
2017-11-30T00:44:32.726Z,21.53
2017-11-30T00:47:01.844Z,22.20
2017-11-30T00:49:30.047Z,22.10
2017-11-30T00:51:58.359Z,21.93
2017-11-30T00:54:26.672Z,19.27
2017-11-30T00:56:55.598Z,20.43
2017-11-30T00:59:23.698Z,22.20
2017-11-30T01:01:51.969Z,20.70
2017-11-30T01:04:33.188Z,20.93
2017-11-30T01:07:02.429Z,21.30
2017-11-30T01:09:30.611Z,20.30
2017-11-30T01:11:58.850Z,22.53
2017-11-30T01:14:26.986Z,21.17
2017-11-30T01:16:55.146Z,17.70
2017-11-30T01:19:23.251Z,20.30
2017-11-30T01:21:51.426Z,22.27
2017-11-30T01:24:19.608Z,21.10
2017-11-30T01:26:47.745Z,20.53
2017-11-30T01:29:16.649Z,20.77
2017-11-30T01:31:44.759Z,21.90
2017-11-30T01:34:12.888Z,19.20
2017-11-30T01:36:41.035Z,20.27
2017-11-30T01:39:09.183Z,21.63
2017-11-30T01:41:38.090Z,20.80
2017-11-30T01:44:06.187Z,19.50
2017-11-30T01:46:35.000Z,21.00
2017-11-30T01:49:03.901Z,21.70
2017-11-30T01:51:32.040Z,18.50
2017-11-30T01:54:00.935Z,19.60
2017-11-30T01:56:29.166Z,19.87
2017-11-30T01:58:57.369Z,18.20
2017-11-30T02:01:25.502Z,19.43
2017-11-30T02:03:53.603Z,20.70
2017-11-30T02:06:21.754Z,19.17
2017-11-30T02:08:49.996Z,19.33
2017-11-30T02:11:18.181Z,20.53
2017-11-30T02:13:46.362Z,19.27
2017-11-30T02:16:16.456Z,18.20
2017-11-30T02:18:44.599Z,19.07
2017-11-30T02:21:12.701Z,18.50
2017-11-30T02:23:40.806Z,19.17
2017-11-30T02:26:08.912Z,20.20
2017-11-30T02:28:37.861Z,18.87
2017-11-30T02:31:06.038Z,17.40
2017-11-30T02:33:34.985Z,19.97
2017-11-30T02:36:03.191Z,19.83
2017-11-30T02:38:31.393Z,18.60
2017-11-30T02:41:00.274Z,18.13
2017-11-30T02:43:29.136Z,17.50
2017-11-30T02:45:57.279Z,18.93
2017-11-30T02:48:25.490Z,19.03
2017-11-30T02:50:53.626Z,19.60
2017-11-30T02:53:21.790Z,19.17
2017-11-30T02:55:49.969Z,20.57
2017-11-30T02:58:18.088Z,19.13
2017-11-30T03:00:46.222Z,20.07
2017-11-30T03:03:14.461Z,19.40
2017-11-30T03:05:42.621Z,19.80
2017-11-30T03:08:10.757Z,20.77
2017-11-30T03:10:38.932Z,20.73
2017-11-30T03:13:07.798Z,19.33
2017-11-30T03:15:35.915Z,21.87
2017-11-30T03:18:04.031Z,19.40
2017-11-30T03:20:32.146Z,21.30
2017-11-30T03:23:00.292Z,20.10
2017-11-30T03:25:28.672Z,18.97
2017-11-30T03:27:56.792Z,20.53
2017-11-30T03:30:25.036Z,19.50
2017-11-30T03:32:53.238Z,18.03
2017-11-30T03:35:21.364Z,19.43
2017-11-30T03:37:49.560Z,18.43
2017-11-30T03:40:17.660Z,18.20
2017-11-30T03:42:46.530Z,19.60
2017-11-30T03:45:14.704Z,16.70
2017-11-30T03:47:42.834Z,17.50
2017-11-30T03:50:11.716Z,17.50
2017-11-30T03:52:39.835Z,16.57
2017-11-30T03:55:08.034Z,15.80
2017-11-30T03:57:36.170Z,15.57
2017-11-30T04:00:04.380Z,16.20
2017-11-30T04:02:33.283Z,16.67
2017-11-30T04:05:01.444Z,19.40
2017-11-30T04:07:29.619Z,19.20
2017-11-30T04:09:58.727Z,17.83
2017-11-30T04:12:26.919Z,20.23
2017-11-30T04:14:55.110Z,21.03
2017-11-30T04:17:23.280Z,19.70
2017-11-30T04:19:51.413Z,19.77
2017-11-30T04:22:20.320Z,20.70
2017-11-30T04:24:48.982Z,21.83
2017-11-30T04:27:17.145Z,19.40
2017-11-30T04:29:45.370Z,19.17
2017-11-30T04:32:13.539Z,18.13
2017-11-30T04:34:41.662Z,17.70
2017-11-30T04:37:09.784Z,19.60
2017-11-30T04:39:37.916Z,17.80
2017-11-30T04:42:06.855Z,19.07
2017-11-30T04:44:35.209Z,18.87
2017-11-30T04:47:13.661Z,17.60
2017-11-30T04:55:43.736Z,15.77
2017-11-30T04:58:12.690Z,16.40
2017-11-30T05:00:40.972Z,15.43
2017-11-30T05:03:28.904Z,17.90
2017-11-30T05:06:04.566Z,20.17
2017-11-30T05:08:35.216Z,21.37
2017-11-30T05:11:14.312Z,23.87
2017-11-30T05:14:43.025Z,21.83
2017-11-30T05:52:34.529Z,19.73
2017-11-30T05:55:03.506Z,20.13
2017-11-30T05:57:36.262Z,22.00
2017-11-30T06:00:04.393Z,21.20
2017-11-30T06:02:32.539Z,20.70
2017-11-30T06:05:18.120Z,22.27
2017-11-30T06:07:46.248Z,22.50
2017-11-30T06:10:14.359Z,22.50
2017-11-30T06:12:42.484Z,22.97
2017-11-30T06:15:11.395Z,21.83
2017-11-30T06:17:39.570Z,22.43
2017-11-30T06:20:07.830Z,22.00
2017-11-30T06:22:36.040Z,22.37
2017-11-30T06:25:04.177Z,21.10
2017-11-30T06:27:33.699Z,20.80
2017-11-30T06:30:02.661Z,21.17
2017-11-30T06:32:31.804Z,19.30
2017-11-30T06:34:59.944Z,20.27
2017-11-30T06:37:28.915Z,22.17
2017-11-30T06:39:57.138Z,20.03
2017-11-30T06:42:25.335Z,20.80
2017-11-30T06:44:54.260Z,20.67
2017-11-30T06:47:22.420Z,20.23
2017-11-30T06:49:51.335Z,20.37
2017-11-30T06:52:19.561Z,20.87
2017-11-30T06:54:47.713Z,20.50
2017-11-30T06:57:24.359Z,21.03
2017-11-30T06:59:53.453Z,20.17
2017-11-30T07:02:21.943Z,20.27
2017-11-30T07:04:52.097Z,21.40
2017-11-30T07:07:21.015Z,19.27
2017-11-30T07:09:49.929Z,18.67
2017-11-30T07:12:18.134Z,18.77
2017-11-30T07:14:46.293Z,18.70
2017-11-30T07:17:14.570Z,19.93
2017-11-30T07:19:42.702Z,17.30
2017-11-30T07:22:11.595Z,19.47
2017-11-30T07:24:39.813Z,18.40
2017-11-30T07:27:08.100Z,17.00
2017-11-30T07:29:36.300Z,17.47
2017-11-30T07:32:04.428Z,18.20
2017-11-30T07:34:32.675Z,17.00
2017-11-30T07:37:00.841Z,17.90
2017-11-30T07:39:29.564Z,18.03
2017-11-30T07:41:57.841Z,17.37
2017-11-30T07:44:27.002Z,15.87
2017-11-30T07:46:55.220Z,17.60
2017-11-30T07:49:23.327Z,14.47
2017-11-30T07:51:51.568Z,17.13
2017-11-30T07:54:19.752Z,17.67
2017-11-30T07:56:47.856Z,15.93
2017-11-30T07:59:16.085Z,14.37
2017-11-30T08:01:44.996Z,15.60
2017-11-30T08:04:13.118Z,14.30
2017-11-30T08:06:41.349Z,14.80
2017-11-30T08:09:09.797Z,15.50
2017-11-30T08:11:38.109Z,13.73
2017-11-30T08:14:06.263Z,13.60
2017-11-30T08:16:34.996Z,14.70
2017-11-30T08:19:03.625Z,14.30
2017-11-30T08:21:32.605Z,14.00
2017-11-30T08:24:00.716Z,16.33
2017-11-30T08:26:29.705Z,14.47
2017-11-30T08:28:58.715Z,15.40
2017-11-30T08:31:26.944Z,13.67
2017-11-30T08:33:55.152Z,15.00
2017-11-30T08:36:23.321Z,14.37
2017-11-30T08:38:51.556Z,13.87
2017-11-30T08:41:19.897Z,14.43
2017-11-30T08:43:48.864Z,15.83
2017-11-30T08:46:17.373Z,14.90
2017-11-30T08:48:45.537Z,15.73
2017-11-30T08:51:13.629Z,15.30
2017-11-30T08:53:41.958Z,15.67
2017-11-30T08:56:10.142Z,14.50
2017-11-30T08:58:38.525Z,16.27
2017-11-30T09:01:06.700Z,19.20
2017-11-30T09:03:34.846Z,16.47
2017-11-30T09:06:03.092Z,17.13
2017-11-30T09:08:31.216Z,15.53
2017-11-30T09:10:59.347Z,15.73
2017-11-30T09:13:27.536Z,16.93
2017-11-30T09:15:55.707Z,16.03
2017-11-30T09:18:23.946Z,16.20
2017-11-30T09:20:53.008Z,14.87
2017-11-30T09:23:22.019Z,14.57
2017-11-30T09:25:50.155Z,14.47
2017-11-30T09:28:18.357Z,13.93
2017-11-30T09:30:46.458Z,15.00
2017-11-30T09:33:14.678Z,14.37
2017-11-30T09:35:43.017Z,12.60
2017-11-30T09:38:11.238Z,12.63
2017-11-30T09:40:39.450Z,11.63
2017-11-30T09:43:07.557Z,10.90
2017-11-30T09:45:35.740Z,13.03
2017-11-30T09:48:04.047Z,10.80
2017-11-30T09:50:32.157Z,12.37
2017-11-30T09:53:00.629Z,11.70
2017-11-30T09:55:28.748Z,12.87
2017-11-30T09:57:56.883Z,13.07
2017-11-30T10:00:25.230Z,14.93
2017-11-30T10:02:54.064Z,14.10
2017-11-30T10:05:22.383Z,13.70
2017-11-30T10:07:51.302Z,14.50
2017-11-30T10:10:19.403Z,13.80
2017-11-30T10:12:47.583Z,14.03
2017-11-30T10:15:15.745Z,13.43
2017-11-30T10:17:43.887Z,14.50
2017-11-30T10:20:12.043Z,15.00
2017-11-30T10:22:40.244Z,15.83
2017-11-30T10:25:09.169Z,12.23
2017-11-30T10:27:39.277Z,13.60
2017-11-30T10:30:07.486Z,12.73
2017-11-30T10:32:35.612Z,13.30
2017-11-30T10:35:04.555Z,13.40
2017-11-30T10:37:32.672Z,13.97
2017-11-30T10:40:00.795Z,14.40
2017-11-30T10:42:28.949Z,16.57
2017-11-30T10:44:57.121Z,14.97
2017-11-30T10:47:25.342Z,15.70
2017-11-30T10:49:54.259Z,15.27
2017-11-30T10:52:25.403Z,16.10
2017-11-30T10:54:54.351Z,15.70
2017-11-30T10:57:22.551Z,16.43
2017-11-30T10:59:50.693Z,16.67
2017-11-30T11:02:18.867Z,15.13
2017-11-30T11:04:47.047Z,15.80
2017-11-30T11:07:15.178Z,15.40
2017-11-30T11:09:43.319Z,16.80
2017-11-30T11:12:12.184Z,16.23
2017-11-30T11:14:40.352Z,15.40
2017-11-30T11:17:08.731Z,16.40
2017-11-30T11:19:36.972Z,17.87
2017-11-30T11:22:05.074Z,17.30
2017-11-30T11:24:33.245Z,18.03
2017-11-30T11:27:01.389Z,16.17
2017-11-30T11:29:30.363Z,15.00
2017-11-30T11:31:58.502Z,15.20
2017-11-30T11:34:26.607Z,16.77
2017-11-30T11:36:54.756Z,16.83
2017-11-30T11:39:23.312Z,15.70
2017-11-30T11:48:15.422Z,13.83
2017-11-30T11:53:46.457Z,14.30
2017-11-30T11:56:15.588Z,15.00
2017-11-30T11:58:44.053Z,14.50
2017-11-30T12:01:12.704Z,13.73
2017-11-30T12:03:41.194Z,14.67
2017-11-30T12:06:12.881Z,13.37
2017-11-30T12:11:39.406Z,33.20
2017-11-30T12:14:07.758Z,22.77
2017-11-30T12:16:35.929Z,13.47
2017-11-30T12:19:04.035Z,17.30
2017-11-30T12:21:32.225Z,14.37
2017-11-30T12:24:00.354Z,12.37
2017-11-30T12:26:28.515Z,13.60
2017-11-30T12:28:56.619Z,15.20
2017-11-30T12:31:24.737Z,16.63
2017-11-30T12:33:52.944Z,18.33
2017-11-30T12:36:21.241Z,14.77
2017-11-30T12:38:49.448Z,14.20
2017-11-30T12:41:17.596Z,14.50
2017-11-30T12:43:45.750Z,13.00
2017-11-30T12:46:15.249Z,13.27
2017-11-30T12:48:43.405Z,12.60
2017-11-30T12:51:11.598Z,12.30
2017-11-30T12:53:39.811Z,12.20
2017-11-30T12:56:07.964Z,13.90
2017-11-30T12:58:36.071Z,12.97
2017-11-30T13:01:06.605Z,12.60
2017-11-30T13:03:35.507Z,12.27
2017-11-30T13:06:03.736Z,12.10
2017-11-30T13:08:32.158Z,11.90
2017-11-30T13:11:00.295Z,12.87
2017-11-30T13:13:29.266Z,13.00
2017-11-30T13:15:57.660Z,11.27
2017-11-30T13:18:25.770Z,12.53
2017-11-30T13:20:53.881Z,11.50
2017-11-30T13:23:22.139Z,12.40
2017-11-30T13:25:50.271Z,11.90
2017-11-30T13:28:18.468Z,11.23
2017-11-30T13:30:46.570Z,10.80
2017-11-30T13:33:14.754Z,11.10
2017-11-30T13:35:43.220Z,11.37
2017-11-30T13:38:11.989Z,12.20
2017-11-30T13:40:40.139Z,12.80
2017-11-30T13:43:08.395Z,12.30
2017-11-30T13:45:36.774Z,12.80
2017-11-30T13:48:04.900Z,11.03
2017-11-30T13:50:33.013Z,11.80
2017-11-30T13:53:01.988Z,10.90
2017-11-30T13:55:30.106Z,10.97
2017-11-30T13:57:59.081Z,11.07
2017-11-30T14:00:27.202Z,10.50
2017-11-30T14:02:55.598Z,9.80
2017-11-30T14:05:24.442Z,11.20
2017-11-30T14:07:55.167Z,11.00
2017-11-30T14:10:25.492Z,11.70
2017-11-30T14:12:53.600Z,11.67
2017-11-30T14:15:21.851Z,11.70
2017-11-30T14:17:50.836Z,9.30
2017-11-30T14:20:18.988Z,10.20
2017-11-30T14:22:47.405Z,10.37
2017-11-30T14:25:15.552Z,10.37
2017-11-30T14:27:44.046Z,9.80
2017-11-30T14:30:12.250Z,10.63
2017-11-30T14:32:40.510Z,11.47
2017-11-30T14:35:08.752Z,10.97
2017-11-30T14:37:37.030Z,10.70
2017-11-30T14:40:05.262Z,11.37
2017-11-30T14:42:33.645Z,11.17
2017-11-30T14:45:02.784Z,15.53
2017-11-30T14:47:30.911Z,11.93
2017-11-30T14:49:59.322Z,10.17
2017-11-30T14:52:27.917Z,13.60
2017-11-30T14:54:56.183Z,15.33
2017-11-30T14:57:24.305Z,14.23
2017-11-30T14:59:52.414Z,18.77
2017-11-30T15:02:20.608Z,18.73
2017-11-30T15:04:48.827Z,16.20
2017-11-30T15:07:17.186Z,17.12
2017-11-30T15:09:45.294Z,12.90
2017-11-30T15:12:13.516Z,11.67
2017-11-30T15:14:43.203Z,11.63
2017-11-30T15:17:11.353Z,13.07
2017-11-30T15:19:39.538Z,11.87
2017-11-30T15:22:07.691Z,12.77
2017-11-30T15:24:40.324Z,12.10
2017-11-30T15:27:08.516Z,11.03
2017-11-30T15:29:39.114Z,11.10
2017-11-30T15:32:08.793Z,11.33
2017-11-30T15:34:37.023Z,10.73
2017-11-30T15:37:05.299Z,11.10
2017-11-30T15:39:35.296Z,11.63
2017-11-30T15:42:03.460Z,13.73
2017-11-30T15:44:31.637Z,14.00
2017-11-30T15:46:59.838Z,13.03
2017-11-30T15:49:28.191Z,13.40
2017-11-30T15:51:56.394Z,13.90
2017-11-30T15:54:26.535Z,13.60
2017-11-30T15:56:56.344Z,14.17
2017-11-30T16:01:57.931Z,13.60
2017-11-30T16:04:26.197Z,14.33
2017-11-30T16:06:54.396Z,13.70
2017-11-30T16:09:22.722Z,13.50
2017-11-30T16:11:50.999Z,13.70
2017-11-30T16:14:20.085Z,14.67
2017-11-30T16:16:48.308Z,14.37
2017-11-30T16:19:16.807Z,14.77
2017-11-30T16:21:44.934Z,14.43
2017-11-30T16:24:13.261Z,14.80
2017-11-30T16:26:43.013Z,14.70
2017-11-30T16:29:12.906Z,14.30
2017-11-30T16:31:41.177Z,12.90
2017-11-30T16:34:09.390Z,14.93
2017-11-30T16:36:38.104Z,12.03
2017-11-30T16:39:06.366Z,13.87
2017-11-30T16:41:34.575Z,15.73
2017-11-30T16:44:03.566Z,13.80
2017-11-30T16:46:32.738Z,13.80
2017-11-30T16:49:04.687Z,14.23
2017-11-30T16:51:32.910Z,13.30
2017-11-30T16:54:02.061Z,13.50
2017-11-30T16:56:31.271Z,14.97
2017-11-30T16:59:01.693Z,13.27
2017-11-30T17:01:31.817Z,15.13
2017-11-30T17:03:59.964Z,14.40
2017-11-30T17:06:29.355Z,14.20
2017-11-30T17:08:57.959Z,14.80
2017-11-30T17:11:26.171Z,14.90
2017-11-30T17:13:54.379Z,16.23
2017-11-30T17:16:22.578Z,15.67
2017-11-30T17:18:50.713Z,14.17
2017-11-30T17:21:18.853Z,16.03
2017-11-30T17:23:46.995Z,15.30
2017-11-30T17:26:15.171Z,15.10
2017-11-30T17:28:43.362Z,14.27
2017-11-30T17:31:11.506Z,15.17
2017-11-30T17:33:39.707Z,15.27
2017-11-30T17:36:07.835Z,15.17
2017-11-30T17:38:35.984Z,15.97
2017-11-30T17:41:04.172Z,15.83
2017-11-30T17:43:32.323Z,15.20
2017-11-30T17:46:01.590Z,14.83
2017-11-30T17:48:29.811Z,14.10
2017-11-30T17:50:59.011Z,15.33
2017-11-30T17:53:27.227Z,16.70
2017-11-30T17:55:56.271Z,16.33
2017-11-30T17:58:25.259Z,24.30
2017-11-30T18:00:53.427Z,46.43
2017-11-30T18:03:21.556Z,25.17
2017-11-30T18:05:50.683Z,42.50
2017-11-30T18:08:18.993Z,34.90
2017-11-30T18:10:47.182Z,16.70
2017-11-30T18:13:16.315Z,17.17
2017-11-30T18:15:44.494Z,16.13
2017-11-30T18:18:12.717Z,16.20
2017-11-30T18:20:41.622Z,17.70
2017-11-30T18:23:09.754Z,16.30
2017-11-30T18:25:37.982Z,16.17
2017-11-30T18:28:06.910Z,15.27
2017-11-30T18:30:35.111Z,14.37
2017-11-30T18:33:03.342Z,16.70
2017-11-30T18:35:31.469Z,16.33
2017-11-30T18:37:59.651Z,16.03
2017-11-30T18:40:28.810Z,14.67
2017-11-30T18:42:56.934Z,15.43
2017-11-30T18:45:25.837Z,15.90
2017-11-30T18:47:54.776Z,15.37
2017-11-30T18:50:22.894Z,16.63
2017-11-30T18:52:52.118Z,12.30
2017-11-30T18:55:33.590Z,9.30
2017-11-30T18:58:01.718Z,14.27
2017-11-30T19:00:29.854Z,12.70
2017-11-30T19:02:58.018Z,13.00
2017-11-30T19:05:26.174Z,12.97
2017-11-30T19:07:54.307Z,11.90
2017-11-30T19:10:23.375Z,13.90
2017-11-30T19:12:52.236Z,13.10
2017-11-30T19:15:20.349Z,16.80
2017-11-30T19:17:50.078Z,15.27
2017-11-30T19:20:18.407Z,15.20
2017-11-30T19:22:46.566Z,15.63
2017-11-30T19:25:14.721Z,16.50
2017-11-30T19:27:43.624Z,14.93
2017-11-30T19:30:11.771Z,15.73
2017-11-30T19:32:40.507Z,15.00
2017-11-30T19:35:09.402Z,14.60
2017-11-30T19:37:38.364Z,15.03
2017-11-30T19:40:06.534Z,14.70
2017-11-30T19:42:35.130Z,14.23
2017-11-30T19:45:03.280Z,15.57
2017-11-30T19:47:31.405Z,14.00
2017-11-30T19:50:14.173Z,16.03
2017-11-30T19:52:42.269Z,16.20
2017-11-30T19:55:11.234Z,15.77
2017-11-30T19:57:39.464Z,15.60
2017-11-30T20:00:07.593Z,15.70
2017-11-30T20:02:36.511Z,16.53
2017-11-30T20:05:04.700Z,16.57
2017-11-30T20:07:33.754Z,15.20
2017-11-30T20:10:01.880Z,17.90
2017-11-30T20:12:30.026Z,17.70
2017-11-30T20:15:06.331Z,15.73
2017-11-30T20:17:35.407Z,14.83
2017-11-30T20:20:03.558Z,17.10
2017-11-30T20:22:31.760Z,17.00
2017-11-30T20:24:59.882Z,14.80
2017-11-30T20:27:27.990Z,15.63
2017-11-30T20:29:56.186Z,16.27
2017-11-30T20:32:24.362Z,14.40
2017-11-30T20:34:52.472Z,14.97
2017-11-30T20:37:20.923Z,15.23
2017-11-30T20:39:49.121Z,15.93
2017-11-30T20:42:18.106Z,14.80
2017-11-30T20:44:46.343Z,15.73
2017-11-30T20:47:14.550Z,14.87
2017-11-30T20:49:42.931Z,15.57
2017-11-30T20:52:16.902Z,15.77
2017-11-30T20:54:45.028Z,13.50
2017-11-30T20:57:13.218Z,15.53
2017-11-30T20:59:41.356Z,15.30
2017-11-30T21:02:09.497Z,15.57
2017-11-30T21:04:38.470Z,16.43
2017-11-30T21:07:06.590Z,15.13
2017-11-30T21:09:34.830Z,14.00
2017-11-30T21:12:03.758Z,15.10
2017-11-30T21:14:32.049Z,13.60
2017-11-30T21:17:00.216Z,13.00
2017-11-30T21:19:28.978Z,14.57
2017-11-30T21:21:57.147Z,15.27
2017-11-30T21:24:26.108Z,13.97
2017-11-30T21:26:55.862Z,14.27
2017-11-30T21:29:23.966Z,13.37
2017-11-30T21:32:12.018Z,12.50
2017-11-30T21:34:40.970Z,13.90
2017-11-30T21:37:09.223Z,13.77
2017-11-30T21:39:37.326Z,12.60
2017-11-30T21:42:05.584Z,14.73
2017-11-30T21:44:34.755Z,13.83
2017-11-30T21:47:03.089Z,14.37
2017-11-30T21:49:31.233Z,12.40
2017-11-30T21:51:59.396Z,12.80
2017-11-30T21:54:27.568Z,12.90
2017-11-30T21:56:55.694Z,13.40
2017-11-30T21:59:23.811Z,12.13
2017-11-30T22:01:55.651Z,11.37
2017-11-30T22:04:23.782Z,12.70
2017-11-30T22:06:51.967Z,12.87
2017-11-30T22:09:21.128Z,12.00
2017-11-30T22:11:49.242Z,12.87
2017-11-30T22:14:17.422Z,13.80
2017-11-30T22:16:46.317Z,11.67
2017-11-30T22:19:14.522Z,13.13
2017-11-30T22:21:43.463Z,12.97
2017-11-30T22:24:11.566Z,12.27
2017-11-30T22:26:39.672Z,12.90
2017-11-30T22:29:07.990Z,13.07
2017-11-30T22:31:36.147Z,13.30
2017-11-30T22:34:04.399Z,12.20
2017-11-30T22:36:32.613Z,11.83
2017-11-30T22:39:00.738Z,11.83
2017-11-30T22:41:28.930Z,13.00
2017-11-30T22:43:57.058Z,11.37
2017-11-30T22:46:25.196Z,12.40
2017-11-30T22:48:53.397Z,12.07
2017-11-30T22:51:21.570Z,13.20
2017-11-30T22:53:49.775Z,12.73
2017-11-30T22:56:18.018Z,12.63
2017-11-30T22:58:47.022Z,11.77
2017-11-30T23:01:15.964Z,12.53
2017-11-30T23:03:44.241Z,13.50
2017-11-30T23:06:13.123Z,12.53
2017-11-30T23:08:41.267Z,15.03
2017-11-30T23:11:09.419Z,13.07
2017-11-30T23:13:37.610Z,13.93
2017-11-30T23:16:05.889Z,12.20
2017-11-30T23:18:34.046Z,13.40
2017-11-30T23:21:02.934Z,13.37
2017-11-30T23:23:31.059Z,13.50
2017-11-30T23:25:59.236Z,13.80
2017-11-30T23:28:27.441Z,14.30
2017-11-30T23:30:55.607Z,15.47
2017-11-30T23:33:23.741Z,14.60
2017-11-30T23:35:51.887Z,13.47
2017-11-30T23:38:21.255Z,13.70
2017-11-30T23:40:49.367Z,15.30
2017-11-30T23:43:18.320Z,13.10
2017-11-30T23:45:46.494Z,15.57
2017-11-30T23:48:14.661Z,15.20
2017-11-30T23:50:42.791Z,13.40
2017-11-30T23:53:11.001Z,14.50
2017-11-30T23:55:39.907Z,14.97
2017-11-30T23:58:08.782Z,15.10
